Time;durP1;ratioP1;P1;durP2;ratioP2;P2;SDS_P1;SDS_P2;PMS_P1;PMS_P2;Temp;Humidity;BMP_temperature;BMP_pressure;BME280_temperature;BME280_humidity;BME280_pressure;Samples;Min_cycle;Max_cycle;Signal;HPM_P1;HPM_P2
2023/04/16 00:00:17;;;;;;;8.55;3.00;;;;;;;;;;5021471;28;20497;-75
2023/04/16 00:02:43;;;;;;;10.70;3.17;;;;;;;;;;5013675;28;20145;-75
2023/04/16 00:05:10;;;;;;;14.57;3.90;;;;;;;;;;5011672;28;21675;-75
2023/04/16 00:07:37;;;;;;;8.10;2.60;;;;;;;;;;5025190;28;20062;-75
2023/04/16 00:10:03;;;;;;;10.63;2.60;;;;;;;;;;5025547;28;20137;-75
2023/04/16 00:12:29;;;;;;;9.65;2.80;;;;;;;;;;5023911;28;20068;-75
2023/04/16 00:14:56;;;;;;;7.82;2.60;;;;;;;;;;5022548;28;20069;-75
2023/04/16 00:17:22;;;;;;;9.88;2.63;;;;;;;;;;5025296;28;20060;-75
2023/04/16 00:19:49;;;;;;;9.60;2.55;;;;;;;;;;5024521;28;20058;-76
2023/04/16 00:22:15;;;;;;;8.75;2.30;;;;;;;;;;5022517;28;20058;-75
2023/04/16 00:24:42;;;;;;;12.52;2.78;;;;;;;;;;5022682;28;20121;-75
2023/04/16 00:27:08;;;;;;;8.15;2.13;;;;;;;;;;5005359;28;20061;-75
2023/04/16 00:29:34;;;;;;;10.60;2.65;;;;;;;;;;5005041;28;20520;-75
2023/04/16 00:32:01;;;;;;;10.32;2.70;;;;;;;;;;5013497;28;20050;-75
2023/04/16 00:34:27;;;;;;;8.38;2.53;;;;;;;;;;5021266;28;20062;-75
2023/04/16 00:36:54;;;;;;;11.25;2.75;;;;;;;;;;5024237;28;20054;-75
2023/04/16 00:39:20;;;;;;;10.68;2.42;;;;;;;;;;5024668;28;20046;-75
2023/04/16 00:41:48;;;;;;;6.80;2.13;;;;;;;;;;5023519;28;20053;-75
2023/04/16 00:44:14;;;;;;;7.47;2.30;;;;;;;;;;5006826;28;20073;-75
2023/04/16 00:46:41;;;;;;;6.93;2.50;;;;;;;;;;5024159;28;20060;-75
2023/04/16 00:49:08;;;;;;;6.38;2.20;;;;;;;;;;5016737;28;20144;-75
2023/04/16 00:51:35;;;;;;;11.13;2.55;;;;;;;;;;5007877;28;20050;-75
2023/04/16 00:54:02;;;;;;;8.27;2.30;;;;;;;;;;5006354;28;20145;-75
2023/04/16 00:56:29;;;;;;;7.53;2.50;;;;;;;;;;5025343;28;20057;-75
2023/04/16 00:58:55;;;;;;;8.20;2.33;;;;;;;;;;5023032;28;20531;-75
2023/04/16 01:01:22;;;;;;;7.10;2.38;;;;;;;;;;5014782;28;20689;-75
2023/04/16 01:03:48;;;;;;;10.23;2.75;;;;;;;;;;5024633;28;20057;-75
2023/04/16 01:06:16;;;;;;;12.52;2.90;;;;;;;;;;5022961;28;20527;-75
2023/04/16 01:08:42;;;;;;;7.68;2.55;;;;;;;;;;5024763;28;20567;-75
2023/04/16 01:11:09;;;;;;;11.35;3.45;;;;;;;;;;5024923;28;20053;-75
2023/04/16 01:13:39;;;;;;;9.55;2.83;;;;;;;;;;5022784;28;20928;-75
2023/04/16 01:16:06;;;;;;;12.82;3.58;;;;;;;;;;5019724;28;20206;-75
2023/04/16 01:18:33;;;;;;;12.85;3.80;;;;;;;;;;5020982;28;20569;-75
2023/04/16 01:21:00;;;;;;;14.15;3.70;;;;;;;;;;5024927;28;20139;-75
2023/04/16 01:23:26;;;;;;;7.40;3.50;;;;;;;;;;5022240;28;20097;-75
2023/04/16 01:25:52;;;;;;;10.75;3.45;;;;;;;;;;5011705;28;20508;-75
2023/04/16 01:28:19;;;;;;;12.90;3.45;;;;;;;;;;5003122;28;20559;-75
2023/04/16 01:30:45;;;;;;;8.77;3.80;;;;;;;;;;5005258;28;20153;-75
2023/04/16 01:33:12;;;;;;;11.57;4.15;;;;;;;;;;5016284;28;20506;-75
2023/04/16 01:35:39;;;;;;;11.07;3.35;;;;;;;;;;5010512;28;20517;-75
2023/04/16 01:38:07;;;;;;;9.80;3.17;;;;;;;;;;5003946;28;20089;-75
2023/04/16 01:40:34;;;;;;;17.88;4.18;;;;;;;;;;5004747;28;20050;-75
2023/04/16 01:43:00;;;;;;;9.73;3.40;;;;;;;;;;5003789;28;20062;-76
2023/04/16 01:45:26;;;;;;;12.75;4.00;;;;;;;;;;5004837;28;20050;-75
2023/04/16 01:47:53;;;;;;;13.02;4.20;;;;;;;;;;5014568;28;20877;-76
2023/04/16 01:50:20;;;;;;;15.05;4.25;;;;;;;;;;5019117;28;20054;-75
2023/04/16 01:52:46;;;;;;;12.55;4.40;;;;;;;;;;5018094;28;20069;-75
2023/04/16 01:55:12;;;;;;;10.82;4.10;;;;;;;;;;5024140;28;20065;-76
2023/04/16 01:57:39;;;;;;;13.13;4.25;;;;;;;;;;5021764;28;20081;-75
2023/04/16 02:00:07;;;;;;;12.75;4.30;;;;;;;;;;5022481;28;20061;-76
2023/04/16 02:02:34;;;;;;;14.82;4.20;;;;;;;;;;5010665;28;20053;-75
2023/04/16 02:05:00;;;;;;;15.30;4.28;;;;;;;;;;5017779;28;20240;-75
2023/04/16 02:07:27;;;;;;;15.70;4.68;;;;;;;;;;5016997;28;20755;-75
2023/04/16 02:09:53;;;;;;;16.92;5.10;;;;;;;;;;5023390;28;20096;-75
2023/04/16 02:12:20;;;;;;;20.88;5.45;;;;;;;;;;5022011;28;20056;-75
2023/04/16 02:14:46;;;;;;;13.98;5.15;;;;;;;;;;5023845;28;20058;-75
2023/04/16 02:17:14;;;;;;;17.60;5.35;;;;;;;;;;5019606;28;20973;-76
2023/04/16 02:19:40;;;;;;;16.85;5.53;;;;;;;;;;5021933;28;20069;-75
2023/04/16 02:22:06;;;;;;;20.55;6.28;;;;;;;;;;5020568;28;20108;-75
2023/04/16 02:24:33;;;;;;;19.75;5.85;;;;;;;;;;5010843;28;20046;-76
2023/04/16 02:26:59;;;;;;;15.57;6.35;;;;;;;;;;5019204;28;20406;-75
2023/04/16 02:29:26;;;;;;;15.63;6.40;;;;;;;;;;5010679;28;20047;-76
2023/04/16 02:31:52;;;;;;;18.30;6.25;;;;;;;;;;5008266;28;20058;-76
2023/04/16 02:34:18;;;;;;;17.05;6.85;;;;;;;;;;5003111;28;20085;-76
2023/04/16 02:36:45;;;;;;;16.63;6.68;;;;;;;;;;5015459;28;20136;-76
2023/04/16 02:39:11;;;;;;;20.65;6.78;;;;;;;;;;5023616;28;20454;-76
2023/04/16 02:41:37;;;;;;;21.20;6.90;;;;;;;;;;5021867;28;20054;-76
2023/04/16 02:44:04;;;;;;;19.50;6.70;;;;;;;;;;5007283;28;20062;-76
2023/04/16 02:46:30;;;;;;;16.08;6.22;;;;;;;;;;5014516;28;20093;-75
2023/04/16 02:48:57;;;;;;;18.48;7.22;;;;;;;;;;5021906;28;20058;-75
2023/04/16 02:51:23;;;;;;;20.45;7.43;;;;;;;;;;5023123;28;20884;-75
2023/04/16 02:53:50;;;;;;;18.65;7.65;;;;;;;;;;5024156;28;20523;-75
2023/04/16 02:56:16;;;;;;;21.92;6.65;;;;;;;;;;5020129;28;20138;-76
2023/04/16 02:58:42;;;;;;;20.45;7.22;;;;;;;;;;5004605;28;20502;-76
2023/04/16 03:01:09;;;;;;;18.88;6.78;;;;;;;;;;5018423;28;20174;-75
2023/04/16 03:03:35;;;;;;;21.92;7.35;;;;;;;;;;5016052;28;20046;-75
2023/04/16 03:06:02;;;;;;;16.27;7.20;;;;;;;;;;5002229;28;20054;-75
2023/04/16 03:08:28;;;;;;;21.70;7.28;;;;;;;;;;5003847;28;20066;-75
2023/04/16 03:10:54;;;;;;;19.15;7.35;;;;;;;;;;5003078;28;20438;-75
2023/04/16 03:13:21;;;;;;;23.27;7.22;;;;;;;;;;5016357;28;20065;-75
2023/04/16 03:15:50;;;;;;;23.40;8.18;;;;;;;;;;5019339;28;20165;-75
2023/04/16 03:18:16;;;;;;;23.10;8.73;;;;;;;;;;5025638;28;20053;-75
2023/04/16 03:20:43;;;;;;;21.38;8.38;;;;;;;;;;5022855;28;20049;-75
2023/04/16 03:23:09;;;;;;;23.42;8.55;;;;;;;;;;5014862;28;20055;-75
2023/04/16 03:25:36;;;;;;;18.02;7.43;;;;;;;;;;5025444;28;20061;-76
2023/04/16 03:28:02;;;;;;;23.67;8.40;;;;;;;;;;5026355;28;20062;-75
2023/04/16 03:30:29;;;;;;;23.70;8.63;;;;;;;;;;5010415;28;20513;-75
2023/04/16 03:32:55;;;;;;;25.08;8.35;;;;;;;;;;5013179;28;20050;-75
2023/04/16 03:35:22;;;;;;;24.88;8.32;;;;;;;;;;5023597;28;20049;-75
2023/04/16 03:37:49;;;;;;;22.05;8.32;;;;;;;;;;5021954;28;20411;-75
2023/04/16 03:40:15;;;;;;;22.83;8.05;;;;;;;;;;5006209;28;20050;-75
2023/04/16 03:42:41;;;;;;;23.10;8.70;;;;;;;;;;5010876;28;20791;-75
2023/04/16 03:45:08;;;;;;;19.25;7.65;;;;;;;;;;5012431;28;20058;-75
2023/04/16 03:47:34;;;;;;;18.60;7.32;;;;;;;;;;5017946;28;20105;-75
2023/04/16 03:50:01;;;;;;;23.50;7.65;;;;;;;;;;5017110;28;20077;-75
2023/04/16 03:52:27;;;;;;;23.83;8.50;;;;;;;;;;5025872;28;20104;-75
2023/04/16 03:54:54;;;;;;;17.92;7.28;;;;;;;;;;5023895;28;20061;-75
2023/04/16 03:57:20;;;;;;;18.90;7.57;;;;;;;;;;5025921;28;20551;-75
2023/04/16 03:59:46;;;;;;;21.52;7.82;;;;;;;;;;5024647;28;20598;-76
2023/04/16 04:02:13;;;;;;;21.13;7.22;;;;;;;;;;5024781;28;20046;-76
2023/04/16 04:04:39;;;;;;;20.90;8.20;;;;;;;;;;5026764;28;20137;-75
2023/04/16 04:07:06;;;;;;;18.88;7.47;;;;;;;;;;5023822;28;20093;-75
2023/04/16 04:09:32;;;;;;;19.10;7.75;;;;;;;;;;5025618;28;20157;-75
2023/04/16 04:11:59;;;;;;;26.02;8.20;;;;;;;;;;5025545;28;20061;-75
2023/04/16 04:14:25;;;;;;;20.77;8.43;;;;;;;;;;5026502;28;20080;-76
2023/04/16 04:16:52;;;;;;;28.98;9.10;;;;;;;;;;5025138;28;20053;-75
2023/04/16 04:19:18;;;;;;;19.13;8.50;;;;;;;;;;5024922;28;20057;-76
2023/04/16 04:21:44;;;;;;;29.00;9.38;;;;;;;;;;5024485;28;20050;-75
2023/04/16 04:24:11;;;;;;;28.27;9.85;;;;;;;;;;5019691;28;20053;-75
2023/04/16 04:26:37;;;;;;;23.63;9.23;;;;;;;;;;5023783;28;20058;-75
2023/04/16 04:29:03;;;;;;;21.02;7.85;;;;;;;;;;5025999;28;20062;-75
2023/04/16 04:31:30;;;;;;;25.23;9.10;;;;;;;;;;5025794;28;20049;-75
2023/04/16 04:33:56;;;;;;;21.25;8.90;;;;;;;;;;5021384;28;20049;-75
2023/04/16 04:36:22;;;;;;;26.35;9.23;;;;;;;;;;5025782;28;20512;-76
2023/04/16 04:38:49;;;;;;;21.65;9.00;;;;;;;;;;5025404;28;20066;-75
2023/04/16 04:41:15;;;;;;;25.08;9.02;;;;;;;;;;5012031;28;20528;-75
2023/04/16 04:43:41;;;;;;;23.88;8.25;;;;;;;;;;5015062;28;20570;-75
2023/04/16 04:46:08;;;;;;;29.88;9.40;;;;;;;;;;5025622;28;20046;-75
2023/04/16 04:48:34;;;;;;;34.67;9.25;;;;;;;;;;5022852;28;20054;-75
2023/04/16 04:51:03;;;;;;;25.13;8.05;;;;;;;;;;5025835;28;20093;-75
2023/04/16 04:53:30;;;;;;;25.27;9.13;;;;;;;;;;5011336;28;20058;-75
2023/04/16 04:55:57;;;;;;;19.30;8.88;;;;;;;;;;5020922;28;20465;-75
2023/04/16 04:58:37;;;;;;;30.45;8.18;;;;;;;;;;5020445;28;20112;-75
2023/04/16 05:01:03;;;;;;;28.73;8.77;;;;;;;;;;5025693;28;20137;-75
2023/04/16 05:03:30;;;;;;;22.73;7.75;;;;;;;;;;5021318;28;21013;-75
2023/04/16 05:05:56;;;;;;;19.52;7.63;;;;;;;;;;5024543;28;20054;-75
2023/04/16 05:08:23;;;;;;;26.70;7.95;;;;;;;;;;5015394;28;20070;-75
2023/04/16 05:10:49;;;;;;;23.40;7.97;;;;;;;;;;5023650;28;20054;-75
2023/04/16 05:13:16;;;;;;;23.38;8.15;;;;;;;;;;5017642;28;20080;-75
2023/04/16 05:15:43;;;;;;;24.45;9.07;;;;;;;;;;5024789;28;20049;-75
2023/04/16 05:18:10;;;;;;;21.45;7.72;;;;;;;;;;5024318;28;20050;-75
2023/04/16 05:20:36;;;;;;;24.60;8.55;;;;;;;;;;5018975;28;20540;-75
2023/04/16 05:23:03;;;;;;;31.15;8.75;;;;;;;;;;5006115;28;20085;-75
2023/04/16 05:25:29;;;;;;;22.48;8.88;;;;;;;;;;5025686;28;20560;-75
2023/04/16 05:27:56;;;;;;;24.20;8.77;;;;;;;;;;5024857;28;20137;-75
2023/04/16 05:30:22;;;;;;;31.17;9.50;;;;;;;;;;5024913;28;20053;-75
2023/04/16 05:32:48;;;;;;;25.90;8.00;;;;;;;;;;5014261;28;20057;-75
2023/04/16 05:35:15;;;;;;;23.00;8.73;;;;;;;;;;5021554;28;20108;-75
2023/04/16 05:37:43;;;;;;;25.52;9.35;;;;;;;;;;5024412;28;20132;-75
2023/04/16 05:40:10;;;;;;;24.90;9.10;;;;;;;;;;5010343;28;20053;-76
2023/04/16 05:42:37;;;;;;;27.23;9.30;;;;;;;;;;5015349;28;20489;-76
2023/04/16 05:45:03;;;;;;;27.30;9.07;;;;;;;;;;5020241;28;20081;-75
2023/04/16 05:47:30;;;;;;;21.58;9.18;;;;;;;;;;5023933;28;20838;-75
2023/04/16 05:49:56;;;;;;;25.55;9.65;;;;;;;;;;5006679;28;20137;-76
2023/04/16 05:52:22;;;;;;;26.52;9.50;;;;;;;;;;5005952;28;20768;-76
2023/04/16 05:54:49;;;;;;;28.90;9.85;;;;;;;;;;5023466;28;20057;-76
2023/04/16 05:57:15;;;;;;;22.80;8.95;;;;;;;;;;5022667;28;20065;-75
2023/04/16 05:59:42;;;;;;;31.83;9.75;;;;;;;;;;5013391;28;20084;-75
2023/04/16 06:02:08;;;;;;;25.08;9.23;;;;;;;;;;5020059;28;20049;-76
2023/04/16 06:04:34;;;;;;;32.15;10.40;;;;;;;;;;5018942;28;20054;-75
2023/04/16 06:07:01;;;;;;;26.48;9.25;;;;;;;;;;5004975;28;21007;-75
2023/04/16 06:09:28;;;;;;;23.05;9.38;;;;;;;;;;5009078;28;20061;-76
2023/04/16 06:11:55;;;;;;;31.13;9.45;;;;;;;;;;5011803;28;20531;-75
2023/04/16 06:14:21;;;;;;;22.63;9.63;;;;;;;;;;5005165;28;20053;-76
2023/04/16 06:16:48;;;;;;;25.42;9.18;;;;;;;;;;5019861;28;20551;-76
2023/04/16 06:19:14;;;;;;;25.08;8.93;;;;;;;;;;5013551;28;20058;-76
2023/04/16 06:21:40;;;;;;;30.92;9.55;;;;;;;;;;5013975;28;20061;-75
2023/04/16 06:24:07;;;;;;;31.05;9.43;;;;;;;;;;5018361;28;20174;-76
2023/04/16 06:26:33;;;;;;;26.70;8.98;;;;;;;;;;5018316;28;20060;-75
2023/04/16 06:28:59;;;;;;;25.80;10.32;;;;;;;;;;5018622;28;20062;-76
2023/04/16 06:31:26;;;;;;;28.08;9.57;;;;;;;;;;5020485;28;20058;-74
2023/04/16 06:33:52;;;;;;;28.52;10.32;;;;;;;;;;5019665;28;20595;-75
2023/04/16 06:36:19;;;;;;;24.33;9.73;;;;;;;;;;5031378;28;21036;-75
2023/04/16 06:38:45;;;;;;;26.77;10.38;;;;;;;;;;5013673;28;20056;-75
2023/04/16 06:41:12;;;;;;;27.85;10.43;;;;;;;;;;5017563;28;20049;-76
2023/04/16 06:43:39;;;;;;;22.67;8.93;;;;;;;;;;5018858;28;20050;-75
2023/04/16 06:46:05;;;;;;;25.30;10.90;;;;;;;;;;5007024;28;20058;-75
2023/04/16 06:48:32;;;;;;;28.58;11.65;;;;;;;;;;5007036;28;20065;-75
2023/04/16 06:50:59;;;;;;;24.75;10.25;;;;;;;;;;5019014;28;20054;-75
2023/04/16 06:53:25;;;;;;;30.17;10.77;;;;;;;;;;5019588;28;20143;-75
2023/04/16 06:55:51;;;;;;;22.80;10.23;;;;;;;;;;5021579;28;20527;-74
2023/04/16 06:58:18;;;;;;;29.52;11.25;;;;;;;;;;5009265;28;20056;-75
2023/04/16 07:00:44;;;;;;;30.95;11.18;;;;;;;;;;5013527;28;20145;-74
2023/04/16 07:03:11;;;;;;;26.52;10.20;;;;;;;;;;5016865;28;20144;-74
2023/04/16 07:05:37;;;;;;;26.77;10.63;;;;;;;;;;5010285;28;20093;-74
2023/04/16 07:08:04;;;;;;;27.40;11.02;;;;;;;;;;5009463;28;20084;-75
2023/04/16 07:10:30;;;;;;;31.00;11.15;;;;;;;;;;5020881;28;20543;-75
2023/04/16 07:12:57;;;;;;;26.92;10.25;;;;;;;;;;5017626;28;20050;-74
2023/04/16 07:15:23;;;;;;;25.60;10.80;;;;;;;;;;5018277;28;20058;-74
2023/04/16 07:17:49;;;;;;;34.08;11.15;;;;;;;;;;5020690;28;20054;-74
2023/04/16 07:20:16;;;;;;;24.40;10.88;;;;;;;;;;5021202;28;20108;-75
2023/04/16 07:22:42;;;;;;;24.60;10.75;;;;;;;;;;5010452;28;20046;-74
2023/04/16 07:25:09;;;;;;;30.95;12.27;;;;;;;;;;5014072;28;20054;-74
2023/04/16 07:27:35;;;;;;;31.98;12.77;;;;;;;;;;5016666;28;20575;-74
2023/04/16 07:30:01;;;;;;;31.70;12.32;;;;;;;;;;5009973;28;20062;-74
2023/04/16 07:32:28;;;;;;;26.80;12.25;;;;;;;;;;5015815;28;20050;-75
2023/04/16 07:34:55;;;;;;;27.75;12.88;;;;;;;;;;5015800;28;20053;-75
2023/04/16 07:37:21;;;;;;;29.83;11.88;;;;;;;;;;5021214;28;20065;-77
2023/04/16 07:39:48;;;;;;;27.55;11.77;;;;;;;;;;5009201;28;20208;-76
2023/04/16 07:42:14;;;;;;;23.38;10.93;;;;;;;;;;5013688;28;20065;-76
2023/04/16 07:44:40;;;;;;;26.15;11.45;;;;;;;;;;5021193;28;20168;-76
2023/04/16 07:47:07;;;;;;;27.15;11.55;;;;;;;;;;5021650;28;20620;-77
2023/04/16 07:49:33;;;;;;;27.60;10.70;;;;;;;;;;5014433;28;20061;-76
2023/04/16 07:51:59;;;;;;;25.42;10.77;;;;;;;;;;5010859;28;20072;-76
2023/04/16 07:54:26;;;;;;;25.70;9.85;;;;;;;;;;5003451;28;20522;-77
2023/04/16 07:56:54;;;;;;;24.60;10.88;;;;;;;;;;5017759;28;20066;-76
2023/04/16 07:59:20;;;;;;;24.60;9.35;;;;;;;;;;5016490;28;20058;-76
2023/04/16 08:01:51;;;;;;;27.58;10.50;;;;;;;;;;5025790;28;20069;-77
2023/04/16 08:04:23;;;;;;;27.75;10.38;;;;;;;;;;5026006;28;20056;-77
2023/04/16 08:06:50;;;;;;;24.67;10.70;;;;;;;;;;5017329;28;20056;-77
2023/04/16 08:09:17;;;;;;;19.92;9.30;;;;;;;;;;5019371;28;20580;-77
2023/04/16 08:11:44;;;;;;;22.17;10.07;;;;;;;;;;5021605;28;20516;-77
2023/04/16 08:14:10;;;;;;;22.92;9.35;;;;;;;;;;5004699;28;20049;-76
2023/04/16 08:16:37;;;;;;;21.13;9.73;;;;;;;;;;5017863;28;20148;-77
2023/04/16 08:19:04;;;;;;;24.63;9.63;;;;;;;;;;5044106;28;20077;-77
2023/04/16 08:21:30;;;;;;;23.67;9.73;;;;;;;;;;5020942;28;20361;-77
2023/04/16 08:23:57;;;;;;;23.27;9.10;;;;;;;;;;5025462;28;20133;-77
2023/04/16 08:26:23;;;;;;;19.70;8.98;;;;;;;;;;5022570;28;20054;-76
2023/04/16 08:28:49;;;;;;;18.83;8.57;;;;;;;;;;5006918;28;20050;-77
2023/04/16 08:31:16;;;;;;;22.58;9.70;;;;;;;;;;5006285;28;20122;-76
2023/04/16 08:33:42;;;;;;;19.65;8.15;;;;;;;;;;5018218;28;20129;-77
2023/04/16 08:36:09;;;;;;;15.45;8.18;;;;;;;;;;5015717;28;20082;-77
2023/04/16 08:38:35;;;;;;;15.52;7.68;;;;;;;;;;5018333;28;20054;-77
2023/04/16 08:41:04;;;;;;;17.65;7.47;;;;;;;;;;5008297;28;20065;-77
2023/04/16 08:43:36;;;;;;;15.75;7.97;;;;;;;;;;5011363;28;20062;-77
2023/04/16 08:46:03;;;;;;;17.67;7.45;;;;;;;;;;5009318;28;20138;-76
2023/04/16 08:48:32;;;;;;;14.18;7.10;;;;;;;;;;5024389;28;20061;-77
2023/04/16 08:50:59;;;;;;;16.50;7.20;;;;;;;;;;5023966;28;20062;-77
2023/04/16 08:53:34;;;;;;;15.25;6.90;;;;;;;;;;5016361;28;20076;-77
2023/04/16 08:56:02;;;;;;;15.40;7.43;;;;;;;;;;5017093;28;20072;-76
2023/04/16 08:58:30;;;;;;;19.02;7.78;;;;;;;;;;5024537;28;20054;-77
2023/04/16 09:00:57;;;;;;;14.98;6.70;;;;;;;;;;5024081;28;20124;-77
2023/04/16 09:03:23;;;;;;;13.65;6.20;;;;;;;;;;5018739;28;20082;-77
2023/04/16 09:05:50;;;;;;;15.95;6.90;;;;;;;;;;5017725;28;20045;-76
2023/04/16 09:08:17;;;;;;;14.63;6.90;;;;;;;;;;5017688;28;20069;-76
2023/04/16 09:10:43;;;;;;;14.85;7.57;;;;;;;;;;5012313;28;20141;-76
2023/04/16 09:13:12;;;;;;;14.20;6.95;;;;;;;;;;5003986;28;20050;-76
2023/04/16 09:15:38;;;;;;;12.07;6.50;;;;;;;;;;5018938;28;20057;-76
2023/04/16 09:18:05;;;;;;;12.73;6.72;;;;;;;;;;5019255;28;20972;-76
2023/04/16 09:20:31;;;;;;;12.85;6.70;;;;;;;;;;5009749;28;20563;-76
2023/04/16 09:22:58;;;;;;;11.65;6.45;;;;;;;;;;5018623;28;20060;-76
2023/04/16 09:25:25;;;;;;;14.65;6.45;;;;;;;;;;5005442;28;20162;-76
2023/04/16 09:27:51;;;;;;;15.15;6.20;;;;;;;;;;5014199;28;20112;-77
2023/04/16 09:30:23;;;;;;;10.38;5.60;;;;;;;;;;5006852;28;20066;-76
2023/04/16 09:32:50;;;;;;;12.85;6.57;;;;;;;;;;5003513;28;20666;-76
2023/04/16 09:35:17;;;;;;;14.15;6.82;;;;;;;;;;5023798;28;20085;-76
2023/04/16 09:37:53;;;;;;;12.45;6.07;;;;;;;;;;5015750;28;20104;-77
2023/04/16 09:40:22;;;;;;;13.35;6.60;;;;;;;;;;5009784;28;20061;-76
2023/04/16 09:42:49;;;;;;;13.52;6.47;;;;;;;;;;5005859;28;20655;-77
2023/04/16 09:45:15;;;;;;;11.68;6.15;;;;;;;;;;5000695;28;20066;-76
2023/04/16 09:47:42;;;;;;;13.60;6.32;;;;;;;;;;5020384;28;20133;-76
2023/04/16 09:50:12;;;;;;;13.20;5.95;;;;;;;;;;5023264;28;21038;-76
2023/04/16 09:52:43;;;;;;;12.48;6.80;;;;;;;;;;5024021;28;20057;-76
2023/04/16 09:55:10;;;;;;;13.65;6.80;;;;;;;;;;5022593;28;20070;-75
2023/04/16 09:57:37;;;;;;;11.90;6.28;;;;;;;;;;5024144;28;20050;-76
2023/04/16 10:00:04;;;;;;;11.95;5.95;;;;;;;;;;5020868;28;20046;-76
2023/04/16 10:02:33;;;;;;;12.40;5.90;;;;;;;;;;5002878;28;20093;-76
2023/04/16 10:05:00;;;;;;;13.88;6.35;;;;;;;;;;5020426;28;20140;-76
2023/04/16 10:07:27;;;;;;;15.65;6.40;;;;;;;;;;5023264;28;20124;-75
2023/04/16 10:09:54;;;;;;;16.17;7.65;;;;;;;;;;5018069;28;20054;-75
2023/04/16 10:12:21;;;;;;;13.52;6.78;;;;;;;;;;5019136;28;20913;-75
2023/04/16 10:14:47;;;;;;;11.55;6.47;;;;;;;;;;5020400;28;20047;-76
2023/04/16 10:17:15;;;;;;;13.18;6.65;;;;;;;;;;5013348;28;20053;-75
2023/04/16 10:19:42;;;;;;;13.52;7.03;;;;;;;;;;5009803;28;20061;-76
2023/04/16 10:22:10;;;;;;;14.48;6.55;;;;;;;;;;5006963;28;20069;-75
2023/04/16 10:24:37;;;;;;;12.07;5.85;;;;;;;;;;5008259;28;20165;-75
2023/04/16 10:27:03;;;;;;;13.93;6.35;;;;;;;;;;5023453;28;20517;-76
2023/04/16 10:29:30;;;;;;;11.93;6.07;;;;;;;;;;5011448;28;20193;-75
2023/04/16 10:31:57;;;;;;;16.02;7.68;;;;;;;;;;5016401;28;20065;-75
2023/04/16 10:34:23;;;;;;;12.52;6.78;;;;;;;;;;5013153;28;20053;-76
2023/04/16 10:36:51;;;;;;;16.83;6.82;;;;;;;;;;5010664;28;20073;-76
2023/04/16 10:39:20;;;;;;;14.07;6.55;;;;;;;;;;5007134;28;20673;-75
2023/04/16 10:41:46;;;;;;;16.25;7.95;;;;;;;;;;5021866;28;20081;-75
2023/04/16 10:44:15;;;;;;;19.33;8.07;;;;;;;;;;5023712;28;20058;-75
2023/04/16 10:46:42;;;;;;;16.48;7.80;;;;;;;;;;5008250;28;20536;-76
2023/04/16 10:49:13;;;;;;;16.85;8.20;;;;;;;;;;5031077;28;20058;-76
2023/04/16 10:51:40;;;;;;;17.05;7.95;;;;;;;;;;5012245;28;20705;-76
2023/04/16 10:54:07;;;;;;;19.02;8.40;;;;;;;;;;5012433;28;20058;-76
2023/04/16 10:56:34;;;;;;;16.67;7.95;;;;;;;;;;5021165;28;20054;-76
2023/04/16 10:59:04;;;;;;;17.33;8.02;;;;;;;;;;5022870;28;20185;-76
2023/04/16 11:01:32;;;;;;;18.80;8.00;;;;;;;;;;5020680;28;20068;-76
2023/04/16 11:04:19;;;;;;;19.23;7.82;;;;;;;;;;5021339;28;20061;-76
2023/04/16 11:07:00;;;;;;;15.57;7.57;;;;;;;;;;5012016;28;20127;-76
2023/04/16 11:09:46;;;;;;;20.95;8.15;;;;;;;;;;5016497;28;20477;-76
2023/04/16 11:12:13;;;;;;;22.30;8.88;;;;;;;;;;5002773;28;20056;-75
2023/04/16 11:14:40;;;;;;;14.05;7.35;;;;;;;;;;5003647;28;20050;-76
2023/04/16 11:17:07;;;;;;;18.40;8.35;;;;;;;;;;5009302;28;20065;-76
2023/04/16 11:19:37;;;;;;;19.10;8.77;;;;;;;;;;5009226;28;20961;-76
2023/04/16 11:22:04;;;;;;;24.05;9.52;;;;;;;;;;5024692;28;20062;-77
2023/04/16 11:24:31;;;;;;;20.85;9.68;;;;;;;;;;5022009;28;20056;-77
2023/04/16 11:26:57;;;;;;;21.77;9.18;;;;;;;;;;5014050;28;20057;-77
2023/04/16 11:29:24;;;;;;;18.77;9.30;;;;;;;;;;5005491;28;20831;-77
2023/04/16 11:31:51;;;;;;;22.15;9.25;;;;;;;;;;5003485;28;20054;-76
2023/04/16 11:34:17;;;;;;;20.13;9.32;;;;;;;;;;5017550;28;20101;-78
2023/04/16 11:36:44;;;;;;;22.38;9.30;;;;;;;;;;5008229;28;20893;-78
2023/04/16 11:39:11;;;;;;;18.23;8.90;;;;;;;;;;5007680;28;20226;-77
2023/04/16 11:41:41;;;;;;;21.67;9.50;;;;;;;;;;5007230;28;20878;-78
2023/04/16 11:44:15;;;;;;;19.38;9.75;;;;;;;;;;5007142;28;20059;-77
2023/04/16 11:46:42;;;;;;;17.60;8.90;;;;;;;;;;5006262;28;20526;-78
2023/04/16 11:49:08;;;;;;;16.48;8.10;;;;;;;;;;5010446;28;20897;-78
2023/04/16 11:51:46;;;;;;;18.98;9.30;;;;;;;;;;5024076;28;20061;-78
2023/04/16 11:54:19;;;;;;;18.40;9.50;;;;;;;;;;5009548;28;20065;-78
2023/04/16 11:56:49;;;;;;;17.05;9.02;;;;;;;;;;5015389;28;20060;-78
2023/04/16 11:59:16;;;;;;;23.10;9.63;;;;;;;;;;5011865;28;20077;-78
2023/04/16 12:01:47;;;;;;;18.38;9.27;;;;;;;;;;5006846;28;20270;-78
2023/04/16 12:04:14;;;;;;;19.40;8.88;;;;;;;;;;5023268;28;20058;-77
2023/04/16 12:07:00;;;;;;;23.83;10.20;;;;;;;;;;5005331;28;20911;-77
2023/04/16 12:09:26;;;;;;;25.13;10.43;;;;;;;;;;5006129;28;20523;-78
2023/04/16 12:11:53;;;;;;;19.20;10.20;;;;;;;;;;5014634;28;20505;-77
2023/04/16 12:14:19;;;;;;;18.60;9.23;;;;;;;;;;5024240;28;20061;-77
2023/04/16 12:16:46;;;;;;;19.45;9.77;;;;;;;;;;5015459;28;20065;-77
2023/04/16 12:19:12;;;;;;;22.52;9.40;;;;;;;;;;5008949;28;20449;-77
2023/04/16 12:21:40;;;;;;;21.25;8.65;;;;;;;;;;5007980;28;20064;-77
2023/04/16 12:24:07;;;;;;;17.83;8.80;;;;;;;;;;5017682;28;20058;-78
2023/04/16 12:26:41;;;;;;;16.35;8.60;;;;;;;;;;5019425;28;20046;-77
2023/04/16 12:29:18;;;;;;;21.02;9.82;;;;;;;;;;5023785;28;20060;-77
2023/04/16 12:31:45;;;;;;;14.50;8.30;;;;;;;;;;5024575;28;20096;-77
2023/04/16 12:34:13;;;;;;;18.42;8.43;;;;;;;;;;5016941;28;20051;-77
2023/04/16 12:36:40;;;;;;;20.45;8.65;;;;;;;;;;5009004;28;20065;-77
2023/04/16 12:39:07;;;;;;;21.33;8.38;;;;;;;;;;5024821;28;20141;-77
2023/04/16 12:41:35;;;;;;;20.80;8.68;;;;;;;;;;5024502;28;20070;-77
2023/04/16 12:44:07;;;;;;;17.55;8.70;;;;;;;;;;5024262;28;20560;-78
2023/04/16 12:46:35;;;;;;;19.80;8.27;;;;;;;;;;5016482;28;20065;-77
2023/04/16 12:49:02;;;;;;;18.45;8.60;;;;;;;;;;5019742;28;20140;-78
2023/04/16 12:51:28;;;;;;;16.98;8.60;;;;;;;;;;5006970;28;20057;-77
2023/04/16 12:53:55;;;;;;;17.95;8.73;;;;;;;;;;5015125;28;20053;-77
2023/04/16 12:56:21;;;;;;;14.98;7.63;;;;;;;;;;5025830;28;20160;-77
2023/04/16 12:58:50;;;;;;;17.33;7.63;;;;;;;;;;5014928;28;20061;-77
2023/04/16 13:01:17;;;;;;;19.08;8.45;;;;;;;;;;5009344;28;20077;-77
2023/04/16 13:03:44;;;;;;;17.17;8.40;;;;;;;;;;5012288;28;20058;-76
2023/04/16 13:06:12;;;;;;;17.10;7.95;;;;;;;;;;5018950;28;20077;-76
2023/04/16 13:08:39;;;;;;;16.33;8.13;;;;;;;;;;5006806;28;20054;-77
2023/04/16 13:11:06;;;;;;;16.58;8.70;;;;;;;;;;5009666;28;20106;-77
2023/04/16 13:13:33;;;;;;;17.98;8.52;;;;;;;;;;5009412;28;20062;-77
2023/04/16 13:15:59;;;;;;;16.70;8.63;;;;;;;;;;5023974;28;20057;-77
2023/04/16 13:18:26;;;;;;;21.08;8.38;;;;;;;;;;5013611;28;20141;-77
2023/04/16 13:20:53;;;;;;;20.20;9.23;;;;;;;;;;5018064;28;20132;-78
2023/04/16 13:23:19;;;;;;;20.67;8.60;;;;;;;;;;5021860;28;20051;-79
2023/04/16 13:25:45;;;;;;;22.90;9.77;;;;;;;;;;5020130;28;20889;-77
2023/04/16 13:28:15;;;;;;;19.83;9.07;;;;;;;;;;5017416;28;20054;-77
2023/04/16 13:30:41;;;;;;;21.88;9.23;;;;;;;;;;5021977;28;20054;-77
2023/04/16 13:33:08;;;;;;;19.77;9.07;;;;;;;;;;5022483;28;20060;-77
2023/04/16 13:35:34;;;;;;;20.67;9.05;;;;;;;;;;5015432;28;20168;-77
2023/04/16 13:38:00;;;;;;;21.83;10.10;;;;;;;;;;5006783;28;20081;-77
2023/04/16 13:40:27;;;;;;;23.13;10.00;;;;;;;;;;5023530;28;20459;-77
2023/04/16 13:42:54;;;;;;;26.25;10.48;;;;;;;;;;5020678;28;20544;-77
2023/04/16 13:45:20;;;;;;;26.27;10.10;;;;;;;;;;5009365;28;20061;-76
2023/04/16 13:47:46;;;;;;;23.92;11.40;;;;;;;;;;5011774;28;20140;-76
2023/04/16 13:50:13;;;;;;;40.00;16.73;;;;;;;;;;5017053;28;20054;-77
2023/04/16 13:52:40;;;;;;;34.03;13.13;;;;;;;;;;5014568;28;20069;-77
2023/04/16 13:55:08;;;;;;;23.25;10.43;;;;;;;;;;5002099;28;20062;-77
2023/04/16 13:57:34;;;;;;;22.33;10.00;;;;;;;;;;5003599;28;20058;-77
2023/04/16 14:00:01;;;;;;;25.77;10.27;;;;;;;;;;5008882;28;20060;-77
2023/04/16 14:02:28;;;;;;;24.25;10.23;;;;;;;;;;5018501;28;20858;-77
2023/04/16 14:04:54;;;;;;;23.88;10.40;;;;;;;;;;5010088;28;20715;-77
2023/04/16 14:07:24;;;;;;;27.40;11.15;;;;;;;;;;5003904;28;20164;-77
2023/04/16 14:09:50;;;;;;;23.90;9.83;;;;;;;;;;5008364;28;20057;-77
2023/04/16 14:12:17;;;;;;;24.15;10.70;;;;;;;;;;5007778;28;20262;-77
2023/04/16 14:14:43;;;;;;;21.30;9.68;;;;;;;;;;5013160;28;20145;-77
2023/04/16 14:17:10;;;;;;;21.23;9.80;;;;;;;;;;5010785;28;20050;-78
2023/04/16 14:19:36;;;;;;;18.67;8.68;;;;;;;;;;5021736;28;20057;-77
2023/04/16 14:22:02;;;;;;;19.33;8.63;;;;;;;;;;5010606;28;20062;-78
2023/04/16 14:24:29;;;;;;;18.40;9.23;;;;;;;;;;5012623;28;20054;-77
2023/04/16 14:26:55;;;;;;;16.33;8.23;;;;;;;;;;5015954;28;20061;-77